Time;durP1;ratioP1;P1;durP2;ratioP2;P2;SDS_P1;SDS_P2;PMS_P1;PMS_P2;Temp;Humidity;BMP_temperature;BMP_pressure;BME280_temperature;BME280_humidity;BME280_pressure;Samples;Min_cycle;Max_cycle;Signal;HPM_P1;HPM_P2
2023/12/29 00:01:41;;;;;;;;;;;8.10;81.30;;;;;;5162199;23;19911;-87
2023/12/29 00:03:49;;;;;;;;;;;8.10;81.30;;;;;;5162380;23;19946;-88
2023/12/29 00:06:00;;;;;;;;;;;8.00;81.20;;;;;;5111988;23;19956;-88
2023/12/29 00:08:21;;;;;;;;;;;8.10;81.30;;;;;;5108903;23;20248;-87
2023/12/29 00:10:22;;;;;;;;;;;8.00;81.30;;;;;;5135971;23;19911;-86
2023/12/29 00:12:52;;;;;;;;;;;8.10;81.40;;;;;;5138995;23;20331;-86
2023/12/29 00:14:52;;;;;;;;;;;8.00;81.30;;;;;;5160683;23;19914;-87
2023/12/29 00:16:57;;;;;;;;;;;8.00;81.40;;;;;;5161844;23;19918;-88
2023/12/29 00:19:10;;;;;;;;;;;8.00;81.40;;;;;;5162377;23;19915;-87
2023/12/29 00:21:25;;;;;;;;;;;7.90;81.40;;;;;;5161153;23;19907;-88
2023/12/29 00:23:26;;;;;;;;;;;7.90;81.40;;;;;;5137320;23;19908;-87
2023/12/29 00:26:16;;;;;;;;;;;7.90;81.40;;;;;;5162294;23;19915;-90
2023/12/29 00:28:40;;;;;;;;;;;7.90;81.40;;;;;;5142449;23;20294;-86
2023/12/29 00:31:01;;;;;;;;;;;7.90;81.40;;;;;;5143349;23;20413;-86
2023/12/29 00:33:24;;;;;;;;;;;7.70;81.20;;;;;;5164134;23;20302;-86
2023/12/29 00:35:51;;;;;;;;;;;7.80;81.30;;;;;;5140350;23;19907;-88
2023/12/29 00:38:11;;;;;;;;;;;7.80;81.20;;;;;;5161435;23;19975;-86
2023/12/29 00:40:32;;;;;;;;;;;7.70;81.20;;;;;;5162990;23;20331;-88
2023/12/29 00:42:53;;;;;;;;;;;7.70;81.40;;;;;;5167375;23;20576;-85
2023/12/29 00:45:16;;;;;;;;;;;7.60;81.40;;;;;;5146504;23;20514;-89
2023/12/29 00:48:00;;;;;;;;;;;7.60;81.60;;;;;;5167087;23;19907;-86
2023/12/29 00:50:21;;;;;;;;;;;7.60;81.70;;;;;;5166727;23;19911;-87
2023/12/29 00:52:47;;;;;;;;;;;7.70;81.90;;;;;;5141495;23;20296;-86
2023/12/29 00:55:07;;;;;;;;;;;7.60;82.00;;;;;;5142077;23;20249;-87
2023/12/29 00:57:28;;;;;;;;;;;7.60;82.00;;;;;;5165033;23;20315;-88
2023/12/29 01:00:07;;;;;;;;;;;7.60;82.10;;;;;;5166945;23;20295;-86
2023/12/29 01:02:27;;;;;;;;;;;7.50;82.30;;;;;;5164285;23;20324;-85
2023/12/29 01:04:48;;;;;;;;;;;7.60;82.60;;;;;;5167208;23;20224;-86
2023/12/29 01:06:49;;;;;;;;;;;7.70;82.80;;;;;;5168665;23;19914;-87
2023/12/29 01:08:49;;;;;;;;;;;7.70;83.00;;;;;;5168538;23;19912;-87
2023/12/29 01:10:54;;;;;;;;;;;7.70;83.20;;;;;;5164606;23;19916;-89
2023/12/29 01:12:55;;;;;;;;;;;7.70;83.50;;;;;;5167714;23;20241;-87
2023/12/29 01:14:55;;;;;;;;;;;7.80;84.00;;;;;;5168142;23;19907;-89
2023/12/29 01:16:56;;;;;;;;;;;7.70;84.30;;;;;;5168256;23;19908;-87
2023/12/29 01:18:56;;;;;;;;;;;7.90;84.70;;;;;;5166714;23;20218;-87
2023/12/29 01:20:57;;;;;;;;;;;7.70;84.90;;;;;;5167132;23;19915;-87
2023/12/29 01:22:57;;;;;;;;;;;7.90;85.50;;;;;;5117512;23;19924;-88
2023/12/29 01:24:58;;;;;;;;;;;8.00;85.40;;;;;;5145455;23;19908;-87
2023/12/29 01:26:59;;;;;;;;;;;8.00;85.40;;;;;;5167696;23;19904;-88
2023/12/29 01:29:23;;;;;;;;;;;8.00;85.70;;;;;;5117937;23;20249;-86
2023/12/29 01:31:24;;;;;;;;;;;8.00;85.90;;;;;;5168940;23;20240;-87
2023/12/29 01:33:24;;;;;;;;;;;8.20;85.80;;;;;;5118332;23;19920;-88
2023/12/29 01:35:38;;;;;;;;;;;8.10;85.60;;;;;;5142384;23;20374;-87
2023/12/29 01:37:51;;;;;;;;;;;8.20;85.50;;;;;;5140547;23;19919;-87
2023/12/29 01:40:01;;;;;;;;;;;8.20;85.50;;;;;;5115959;23;19979;-86
2023/12/29 01:42:21;;;;;;;;;;;8.20;85.30;;;;;;5142701;23;20249;-86
2023/12/29 01:44:44;;;;;;;;;;;8.40;85.40;;;;;;5167028;23;20255;-87
2023/12/29 01:47:18;;;;;;;;;;;8.30;85.20;;;;;;5142111;23;20283;-87
2023/12/29 01:49:46;;;;;;;;;;;8.40;85.20;;;;;;5144429;23;20295;-88
2023/12/29 01:52:19;;;;;;;;;;;8.40;85.10;;;;;;5146319;23;20004;-86
2023/12/29 01:54:49;;;;;;;;;;;8.40;84.90;;;;;;5142988;23;19948;-89
2023/12/29 01:57:20;;;;;;;;;;;8.40;84.90;;;;;;5140853;23;20018;-91
2023/12/29 01:59:40;;;;;;;;;;;8.50;85.00;;;;;;5140568;23;19904;-88
2023/12/29 02:01:45;;;;;;;;;;;8.50;84.90;;;;;;5113918;23;19911;-87
2023/12/29 02:03:48;;;;;;;;;;;8.40;84.80;;;;;;5140749;23;19908;-90
2023/12/29 02:05:49;;;;;;;;;;;8.50;84.80;;;;;;5114081;23;20267;-86
2023/12/29 02:07:56;;;;;;;;;;;8.50;84.80;;;;;;5164765;23;19942;-88
2023/12/29 02:10:21;;;;;;;;;;;8.50;84.80;;;;;;5151533;23;19972;-88
2023/12/29 02:12:22;;;;;;;;;;;8.60;84.90;;;;;;5138003;23;20363;-86
2023/12/29 02:14:23;;;;;;;;;;;8.60;84.90;;;;;;5165153;23;19918;-89
2023/12/29 02:17:11;;;;;;;;;;;8.60;84.80;;;;;;5118493;23;20238;-88
2023/12/29 02:19:30;;;;;;;;;;;8.60;84.80;;;;;;5038685;23;19980;-88
2023/12/29 02:21:32;;;;;;;;;;;8.60;84.70;;;;;;5039466;23;19945;-87
2023/12/29 02:23:32;;;;;;;;;;;8.60;84.70;;;;;;5115473;23;20557;-87
2023/12/29 02:25:46;;;;;;;;;;;8.60;84.70;;;;;;5144245;23;19908;-88
2023/12/29 02:27:55;;;;;;;;;;;8.60;84.70;;;;;;5143244;23;19904;-87
2023/12/29 02:30:08;;;;;;;;;;;8.60;84.60;;;;;;5142056;23;20059;-87
2023/12/29 02:32:16;;;;;;;;;;;8.60;84.60;;;;;;5115708;23;20095;-86
2023/12/29 02:34:27;;;;;;;;;;;8.70;84.80;;;;;;5142180;23;19999;-88
2023/12/29 02:36:42;;;;;;;;;;;8.70;84.70;;;;;;5165177;23;19914;-88
2023/12/29 02:38:48;;;;;;;;;;;8.70;84.70;;;;;;5141104;23;20240;-87
2023/12/29 02:40:49;;;;;;;;;;;8.80;84.80;;;;;;5115481;23;19920;-88
2023/12/29 02:42:49;;;;;;;;;;;8.80;84.60;;;;;;5138446;23;19942;-87
2023/12/29 02:44:51;;;;;;;;;;;8.70;84.70;;;;;;5140778;23;19908;-86
2023/12/29 02:46:52;;;;;;;;;;;8.70;84.60;;;;;;5139839;23;19928;-88
2023/12/29 02:48:55;;;;;;;;;;;8.70;84.50;;;;;;5139235;23;19900;-88
2023/12/29 02:51:05;;;;;;;;;;;8.70;84.40;;;;;;5140963;23;19907;-88
2023/12/29 02:53:43;;;;;;;;;;;8.90;84.60;;;;;;5145420;23;19934;-87
2023/12/29 02:56:07;;;;;;;;;;;8.80;84.50;;;;;;5143233;23;19934;-90
2023/12/29 02:58:09;;;;;;;;;;;8.80;84.60;;;;;;5139064;23;19908;-89
2023/12/29 03:03:34;;;;;;;;;;;8.80;84.60;;;;;;5166895;23;19978;-87
2023/12/29 03:05:54;;;;;;;;;;;8.90;84.60;;;;;;5164843;23;19957;-86
2023/12/29 03:08:15;;;;;;;;;;;8.80;84.50;;;;;;5167608;23;20243;-87
2023/12/29 03:10:35;;;;;;;;;;;8.90;84.50;;;;;;5142281;23;19912;-86
2023/12/29 03:12:56;;;;;;;;;;;8.90;84.50;;;;;;5140576;23;19914;-87
2023/12/29 03:15:20;;;;;;;;;;;8.90;84.40;;;;;;5143701;23;19954;-88
2023/12/29 03:17:40;;;;;;;;;;;8.90;84.30;;;;;;5143146;23;20213;-89
2023/12/29 03:20:02;;;;;;;;;;;8.90;84.20;;;;;;5142710;23;19908;-86
2023/12/29 03:22:23;;;;;;;;;;;8.90;84.10;;;;;;5141642;23;19904;-87
2023/12/29 03:24:32;;;;;;;;;;;8.90;84.20;;;;;;5139166;23;19983;-87
2023/12/29 03:26:39;;;;;;;;;;;8.90;84.20;;;;;;5112442;23;20155;-89
2023/12/29 03:28:47;;;;;;;;;;;8.90;84.30;;;;;;5161231;23;19907;-87
2023/12/29 03:30:54;;;;;;;;;;;8.90;84.10;;;;;;5114169;23;19963;-87
2023/12/29 03:33:02;;;;;;;;;;;8.90;84.00;;;;;;5137166;23;19923;-87
2023/12/29 03:35:12;;;;;;;;;;;8.90;84.00;;;;;;5162934;23;19908;-88
2023/12/29 03:37:13;;;;;;;;;;;8.90;84.00;;;;;;5163464;23;19907;-85
2023/12/29 03:39:20;;;;;;;;;;;8.90;84.00;;;;;;5160950;23;19906;-86
2023/12/29 03:41:37;;;;;;;;;;;8.90;84.00;;;;;;5137711;23;19978;-87
2023/12/29 03:43:46;;;;;;;;;;;8.90;84.00;;;;;;5113490;23;19901;-88
2023/12/29 03:49:10;;;;;;;;;;;8.90;83.90;;;;;;5134843;23;19987;-86
2023/12/29 03:51:41;;;;;;;;;;;8.90;83.80;;;;;;5139207;23;19912;-87
2023/12/29 03:54:08;;;;;;;;;;;8.90;83.70;;;;;;5141885;23;19962;-87
2023/12/29 03:56:26;;;;;;;;;;;8.90;84.20;;;;;;5115944;23;19916;-85
2023/12/29 03:58:59;;;;;;;;;;;8.90;83.40;;;;;;5099711;23;19911;-87
2023/12/29 04:01:25;;;;;;;;;;;8.90;83.00;;;;;;5145346;23;19911;-87
2023/12/29 04:04:02;;;;;;;;;;;8.90;83.10;;;;;;5179806;22;19919;-86
2023/12/29 04:06:22;;;;;;;;;;;8.90;83.10;;;;;;5191091;22;19989;-87
2023/12/29 04:08:43;;;;;;;;;;;8.80;83.00;;;;;;5166971;22;19903;-86
2023/12/29 04:11:12;;;;;;;;;;;8.90;83.20;;;;;;5168642;22;20070;-87
2023/12/29 04:13:33;;;;;;;;;;;8.80;83.10;;;;;;5190136;22;19975;-83
2023/12/29 04:15:59;;;;;;;;;;;8.80;83.20;;;;;;5191528;22;19911;-88
2023/12/29 04:18:24;;;;;;;;;;;8.70;83.10;;;;;;5167437;22;19969;-86
2023/12/29 04:20:44;;;;;;;;;;;8.90;83.30;;;;;;5168893;22;19903;-87
2023/12/29 04:23:06;;;;;;;;;;;8.70;83.20;;;;;;5190758;22;19907;-86
2023/12/29 04:25:27;;;;;;;;;;;8.80;83.20;;;;;;5191706;22;19907;-86
2023/12/29 04:27:56;;;;;;;;;;;8.90;83.20;;;;;;5190287;22;19911;-85
2023/12/29 04:29:57;;;;;;;;;;;8.80;83.20;;;;;;5191757;22;19917;-87
2023/12/29 04:31:58;;;;;;;;;;;8.80;83.20;;;;;;5189612;22;19907;-86
2023/12/29 04:33:58;;;;;;;;;;;8.80;83.10;;;;;;5165249;23;19939;-86
2023/12/29 04:35:59;;;;;;;;;;;8.90;83.20;;;;;;5166145;23;20389;-88
2023/12/29 04:37:59;;;;;;;;;;;8.80;83.10;;;;;;5164661;23;19907;-87
2023/12/29 04:40:09;;;;;;;;;;;8.80;83.20;;;;;;5165524;23;20438;-89
2023/12/29 04:42:49;;;;;;;;;;;8.90;83.20;;;;;;5191490;22;20294;-85
2023/12/29 04:45:13;;;;;;;;;;;8.70;83.10;;;;;;5169377;22;19903;-85
2023/12/29 04:47:34;;;;;;;;;;;8.70;83.20;;;;;;5187822;22;20006;-87
2023/12/29 04:49:57;;;;;;;;;;;8.80;83.30;;;;;;5189567;22;19982;-88
2023/12/29 04:52:01;;;;;;;;;;;8.80;83.20;;;;;;5139139;23;19955;-86
2023/12/29 04:54:35;;;;;;;;;;;8.70;83.10;;;;;;5191250;22;19930;-87
2023/12/29 04:56:59;;;;;;;;;;;8.70;83.00;;;;;;5169895;22;19926;-86
2023/12/29 04:59:22;;;;;;;;;;;8.70;83.00;;;;;;5167569;22;19907;-85
2023/12/29 05:02:01;;;;;;;;;;;8.70;83.00;;;;;;5170212;22;19907;-86
2023/12/29 05:04:24;;;;;;;;;;;8.80;83.00;;;;;;5169491;22;19923;-87
2023/12/29 05:06:48;;;;;;;;;;;8.70;82.90;;;;;;5192058;22;20034;-86
2023/12/29 05:09:12;;;;;;;;;;;8.70;82.90;;;;;;5190638;22;19903;-88
2023/12/29 05:11:12;;;;;;;;;;;8.70;82.90;;;;;;5163913;23;19908;-86
2023/12/29 05:13:13;;;;;;;;;;;8.80;83.00;;;;;;5190369;22;19910;-87
2023/12/29 05:15:14;;;;;;;;;;;8.70;83.60;;;;;;5161790;23;19904;-87
2023/12/29 05:19:41;;;;;;;;;;;8.70;82.90;;;;;;5162440;23;19979;-87
2023/12/29 05:21:42;;;;;;;;;;;8.70;82.90;;;;;;5138241;23;20407;-86
2023/12/29 05:23:49;;;;;;;;;;;8.70;82.80;;;;;;5191300;22;20236;-89
2023/12/29 05:25:49;;;;;;;;;;;8.70;82.60;;;;;;5165073;23;19907;-87
2023/12/29 05:27:59;;;;;;;;;;;8.60;82.40;;;;;;5164665;23;20217;-87
2023/12/29 05:30:00;;;;;;;;;;;8.60;82.50;;;;;;5191978;22;19907;-88
2023/12/29 05:32:20;;;;;;;;;;;8.60;82.50;;;;;;5169563;22;19958;-88
2023/12/29 05:34:41;;;;;;;;;;;8.70;82.50;;;;;;5170191;22;19903;-89
2023/12/29 05:36:47;;;;;;;;;;;8.70;82.40;;;;;;5141277;22;21663;-87
2023/12/29 05:39:07;;;;;;;;;;;8.60;82.20;;;;;;5169988;22;19911;-86
2023/12/29 05:41:28;;;;;;;;;;;8.60;82.20;;;;;;5192585;22;20326;-88
2023/12/29 05:43:54;;;;;;;;;;;8.60;82.10;;;;;;5168996;22;19981;-88
2023/12/29 05:46:15;;;;;;;;;;;8.60;81.80;;;;;;5170469;22;19910;-85
2023/12/29 05:48:36;;;;;;;;;;;8.50;81.70;;;;;;5194733;22;20122;-87
2023/12/29 05:50:56;;;;;;;;;;;8.50;81.60;;;;;;5194154;22;19934;-86
2023/12/29 05:53:26;;;;;;;;;;;8.50;81.60;;;;;;5192194;22;19907;-87
2023/12/29 05:55:43;;;;;;;;;;;8.40;81.40;;;;;;5192908;22;19990;-88
2023/12/29 05:58:03;;;;;;;;;;;8.40;81.20;;;;;;5193420;22;19911;-85
2023/12/29 06:00:24;;;;;;;;;;;8.40;81.20;;;;;;5192599;22;19912;-88
2023/12/29 06:02:44;;;;;;;;;;;8.30;80.90;;;;;;5194635;22;20293;-84
2023/12/29 06:05:21;;;;;;;;;;;8.30;81.00;;;;;;5169526;22;19915;-87
2023/12/29 06:07:41;;;;;;;;;;;8.40;81.00;;;;;;5171598;22;19994;-86
2023/12/29 06:10:13;;;;;;;;;;;8.30;81.00;;;;;;5192046;22;19950;-87
2023/12/29 06:12:34;;;;;;;;;;;8.20;80.80;;;;;;5169164;22;19918;-84
2023/12/29 06:14:55;;;;;;;;;;;8.30;81.00;;;;;;5193136;22;19934;-87
2023/12/29 06:17:15;;;;;;;;;;;8.20;80.90;;;;;;5169633;22;19903;-87
2023/12/29 06:19:18;;;;;;;;;;;8.30;80.90;;;;;;5191942;22;19911;-87
2023/12/29 06:21:29;;;;;;;;;;;8.30;80.90;;;;;;5159827;23;19951;-86
2023/12/29 06:23:35;;;;;;;;;;;8.30;80.80;;;;;;5166613;23;19947;-89
2023/12/29 06:25:36;;;;;;;;;;;8.30;80.80;;;;;;5164989;23;19903;-85
2023/12/29 06:27:46;;;;;;;;;;;8.20;80.60;;;;;;5192667;22;19908;-88
2023/12/29 06:32:13;;;;;;;;;;;8.30;80.60;;;;;;5167203;23;19914;-86
2023/12/29 06:34:25;;;;;;;;;;;8.30;80.50;;;;;;5143218;23;20295;-88
2023/12/29 06:36:37;;;;;;;;;;;8.30;80.30;;;;;;5165677;23;19978;-87
2023/12/29 06:38:48;;;;;;;;;;;8.20;80.20;;;;;;5166008;23;19903;-88
2023/12/29 06:41:17;;;;;;;;;;;8.20;80.20;;;;;;5167925;22;19989;-88
2023/12/29 06:43:46;;;;;;;;;;;8.20;80.10;;;;;;5193911;22;19926;-86
2023/12/29 06:46:08;;;;;;;;;;;8.30;80.30;;;;;;5170392;22;19953;-85
2023/12/29 06:48:29;;;;;;;;;;;8.20;79.90;;;;;;5171552;22;20009;-88
2023/12/29 06:50:49;;;;;;;;;;;8.30;80.00;;;;;;5171515;22;19918;-85
2023/12/29 06:53:21;;;;;;;;;;;8.20;80.50;;;;;;5171059;22;19907;-86
2023/12/29 06:55:42;;;;;;;;;;;8.30;79.70;;;;;;5168197;22;19915;-88
2023/12/29 06:58:04;;;;;;;;;;;8.30;79.60;;;;;;5191875;22;20074;-86
2023/12/29 07:00:24;;;;;;;;;;;8.30;79.60;;;;;;5193122;22;19961;-87
2023/12/29 07:02:47;;;;;;;;;;;8.30;79.50;;;;;;5194135;22;19938;-87
2023/12/29 07:05:08;;;;;;;;;;;8.20;79.30;;;;;;5194856;22;19915;-85
2023/12/29 07:07:33;;;;;;;;;;;8.30;79.30;;;;;;5195032;22;19972;-84
2023/12/29 07:09:57;;;;;;;;;;;8.30;79.10;;;;;;5170615;22;19916;-87
2023/12/29 07:12:24;;;;;;;;;;;8.30;78.70;;;;;;5171991;22;21232;-88
2023/12/29 07:14:44;;;;;;;;;;;8.30;78.70;;;;;;5172808;22;19974;-87
2023/12/29 07:17:05;;;;;;;;;;;8.30;78.40;;;;;;5193749;22;19914;-85
2023/12/29 07:19:06;;;;;;;;;;;8.30;78.50;;;;;;5163002;23;19912;-87
2023/12/29 07:21:12;;;;;;;;;;;8.30;78.50;;;;;;5192725;22;19911;-86
2023/12/29 07:23:20;;;;;;;;;;;8.30;78.60;;;;;;5142712;23;19955;-88
2023/12/29 07:25:27;;;;;;;;;;;8.30;78.70;;;;;;5166190;23;19903;-87
2023/12/29 07:27:28;;;;;;;;;;;8.30;78.50;;;;;;5142843;23;20443;-87
2023/12/29 07:29:36;;;;;;;;;;;8.20;78.40;;;;;;5194631;22;19907;-87
2023/12/29 07:31:40;;;;;;;;;;;8.30;78.50;;;;;;5165633;23;19987;-86
2023/12/29 07:33:43;;;;;;;;;;;8.20;78.40;;;;;;5166600;23;20239;-88
2023/12/29 07:35:44;;;;;;;;;;;8.20;78.30;;;;;;5168509;23;19978;-88
2023/12/29 07:37:51;;;;;;;;;;;8.20;78.20;;;;;;5169169;23;19915;-87
2023/12/29 07:39:55;;;;;;;;;;;8.20;78.30;;;;;;5140341;23;20240;-87
2023/12/29 07:41:59;;;;;;;;;;;8.10;78.30;;;;;;5144471;23;19908;-86
2023/12/29 07:44:15;;;;;;;;;;;8.10;78.20;;;;;;5167087;23;20365;-86
2023/12/29 07:47:02;;;;;;;;;;;8.10;78.40;;;;;;5170118;22;19963;-88
2023/12/29 07:49:23;;;;;;;;;;;8.10;78.60;;;;;;5192452;22;19939;-86
2023/12/29 07:51:46;;;;;;;;;;;8.10;78.70;;;;;;5193958;22;19930;-87
2023/12/29 07:54:10;;;;;;;;;;;8.10;78.90;;;;;;5167545;23;19911;-86
2023/12/29 07:56:31;;;;;;;;;;;8.10;79.10;;;;;;5168276;22;19904;-86
2023/12/29 07:58:52;;;;;;;;;;;8.10;79.20;;;;;;5187772;22;20527;-86
2023/12/29 08:01:04;;;;;;;;;;;8.10;79.20;;;;;;5136551;23;19911;-88
2023/12/29 08:03:25;;;;;;;;;;;8.10;79.20;;;;;;5167372;22;19910;-88
2023/12/29 08:05:46;;;;;;;;;;;8.20;79.20;;;;;;5166247;22;19911;-87
2023/12/29 08:08:06;;;;;;;;;;;8.10;79.30;;;;;;5189233;22;19978;-87
2023/12/29 08:10:29;;;;;;;;;;;8.00;79.50;;;;;;5190691;22;19907;-89
2023/12/29 08:12:55;;;;;;;;;;;8.00;79.70;;;;;;5194048;22;19961;-89
2023/12/29 08:15:15;;;;;;;;;;;8.00;79.80;;;;;;5185629;22;19973;-87
2023/12/29 08:17:39;;;;;;;;;;;8.00;79.80;;;;;;5187518;22;19926;-87
2023/12/29 08:20:00;;;;;;;;;;;7.90;79.70;;;;;;5165493;22;19930;-88
2023/12/29 08:22:20;;;;;;;;;;;8.00;79.80;;;;;;5188192;22;19911;-88
2023/12/29 08:24:44;;;;;;;;;;;8.00;80.00;;;;;;5187011;22;19976;-87
2023/12/29 08:26:50;;;;;;;;;;;8.00;80.00;;;;;;5187958;22;19907;-90
2023/12/29 08:28:53;;;;;;;;;;;8.00;80.00;;;;;;5136150;23;19979;-88
2023/12/29 08:30:54;;;;;;;;;;;8.00;80.00;;;;;;5188147;22;20251;-88
2023/12/29 08:32:55;;;;;;;;;;;8.00;80.10;;;;;;5138343;22;20619;-87
2023/12/29 08:34:55;;;;;;;;;;;8.00;80.10;;;;;;5191057;22;19907;-87
2023/12/29 08:37:05;;;;;;;;;;;8.00;80.30;;;;;;5162279;22;19930;-89
2023/12/29 08:39:15;;;;;;;;;;;8.00;80.20;;;;;;5169903;23;19908;-88
2023/12/29 08:41:54;;;;;;;;;;;8.00;80.40;;;;;;5173712;22;19908;-86
2023/12/29 08:44:15;;;;;;;;;;;8.10;80.40;;;;;;5169082;22;20048;-88
2023/12/29 08:46:16;;;;;;;;;;;8.00;80.30;;;;;;5172141;23;19903;-89
2023/12/29 08:48:51;;;;;;;;;;;8.00;80.20;;;;;;5197474;22;19907;-90
2023/12/29 08:51:41;;;;;;;;;;;8.00;80.00;;;;;;5204309;22;19923;-87
2023/12/29 08:54:39;;;;;;;;;;;7.90;79.90;;;;;;5198499;22;19962;-89
2023/12/29 08:57:04;;;;;;;;;;;7.90;80.00;;;;;;5182806;22;19934;-88
2023/12/29 08:59:30;;;;;;;;;;;8.00;80.00;;;;;;5194459;22;20188;-89
2023/12/29 09:01:53;;;;;;;;;;;7.90;80.00;;;;;;5163200;22;19907;-88
2023/12/29 09:04:16;;;;;;;;;;;7.90;80.00;;;;;;5200753;22;19923;-89
2023/12/29 09:06:38;;;;;;;;;;;7.90;80.20;;;;;;5178970;22;19911;-89
2023/12/29 09:09:19;;;;;;;;;;;7.90;80.30;;;;;;5176372;22;19907;-87
2023/12/29 09:11:19;;;;;;;;;;;7.90;80.40;;;;;;5173189;23;20157;-86
2023/12/29 09:13:22;;;;;;;;;;;7.90;80.50;;;;;;5166843;23;20403;-87
2023/12/29 09:15:28;;;;;;;;;;;8.00;80.60;;;;;;5137762;23;19987;-88
2023/12/29 09:17:32;;;;;;;;;;;7.90;80.50;;;;;;5136125;23;20757;-87
2023/12/29 09:19:43;;;;;;;;;;;8.00;80.70;;;;;;5161679;23;19908;-88
2023/12/29 09:22:28;;;;;;;;;;;8.00;80.70;;;;;;5187601;22;19972;-86
2023/12/29 09:24:51;;;;;;;;;;;8.00;80.80;;;;;;5164797;22;19903;-87
2023/12/29 09:27:13;;;;;;;;;;;8.00;80.70;;;;;;5187488;22;19961;-88
2023/12/29 09:29:36;;;;;;;;;;;8.10;80.80;;;;;;5179485;22;19915;-87
2023/12/29 09:31:57;;;;;;;;;;;8.00;80.80;;;;;;5197265;22;19915;-85
2023/12/29 09:34:27;;;;;;;;;;;8.00;80.80;;;;;;5179456;22;19927;-89
2023/12/29 09:36:53;;;;;;;;;;;7.90;80.80;;;;;;5180714;22;19904;-88
2023/12/29 09:39:18;;;;;;;;;;;8.00;80.90;;;;;;5171013;22;19958;-87
2023/12/29 09:41:41;;;;;;;;;;;8.00;80.80;;;;;;5192124;22;19907;-88
2023/12/29 09:43:44;;;;;;;;;;;8.00;80.80;;;;;;5163690;23;19910;-86
2023/12/29 09:46:09;;;;;;;;;;;8.00;81.00;;;;;;5168805;22;19914;-86
2023/12/29 09:48:26;;;;;;;;;;;8.00;81.20;;;;;;5167050;22;19918;-88
2023/12/29 09:50:40;;;;;;;;;;;8.00;81.20;;;;;;5190414;22;19918;-87
2023/12/29 09:53:05;;;;;;;;;;;8.00;81.30;;;;;;5170168;22;19908;-86
2023/12/29 09:55:29;;;;;;;;;;;8.00;81.30;;;;;;5170470;22;19926;-88
2023/12/29 09:57:52;;;;;;;;;;;8.00;81.20;;;;;;5170800;22;20305;-89
2023/12/29 10:00:23;;;;;;;;;;;8.00;81.00;;;;;;5193955;22;19923;-87
2023/12/29 10:02:44;;;;;;;;;;;8.00;80.70;;;;;;5172142;22;20014;-87
2023/12/29 10:05:18;;;;;;;;;;;8.00;80.80;;;;;;5195688;22;19915;-87
2023/12/29 10:10:24;;;;;;;;;;;8.10;80.70;;;;;;5193650;22;19915;-86
2023/12/29 10:12:47;;;;;;;;;;;8.00;81.30;;;;;;5173294;22;19910;-87
2023/12/29 10:15:27;;;;;;;;;;;8.10;80.50;;;;;;5168986;22;19931;-87
2023/12/29 10:18:02;;;;;;;;;;;8.00;80.40;;;;;;5171579;22;19903;-88
2023/12/29 10:20:41;;;;;;;;;;;8.00;80.20;;;;;;5171451;22;19908;-88
2023/12/29 10:23:06;;;;;;;;;;;8.00;79.90;;;;;;5191273;22;19911;-87
2023/12/29 10:25:08;;;;;;;;;;;7.90;79.80;;;;;;5163130;23;19979;-87
2023/12/29 10:27:09;;;;;;;;;;;8.00;80.00;;;;;;5164186;23;19963;-86
2023/12/29 10:29:14;;;;;;;;;;;7.90;80.00;;;;;;5137961;23;19935;-88
2023/12/29 10:31:25;;;;;;;;;;;7.90;80.10;;;;;;5164333;23;19959;-87
2023/12/29 10:33:33;;;;;;;;;;;8.00;80.20;;;;;;5145091;23;19955;-88
2023/12/29 10:35:35;;;;;;;;;;;8.00;80.30;;;;;;5189502;22;20270;-87
2023/12/29 10:37:39;;;;;;;;;;;8.00;80.80;;;;;;5169646;23;19973;-87
2023/12/29 10:39:54;;;;;;;;;;;8.00;80.70;;;;;;5167025;23;20306;-89
2023/12/29 10:42:16;;;;;;;;;;;8.00;81.10;;;;;;5165551;23;19913;-87
2023/12/29 10:44:37;;;;;;;;;;;8.00;81.20;;;;;;5193693;22;19938;-88
2023/12/29 10:46:53;;;;;;;;;;;8.10;81.20;;;;;;5170459;22;20259;-86
2023/12/29 10:49:18;;;;;;;;;;;8.10;81.10;;;;;;5170873;22;19908;-87
2023/12/29 10:51:39;;;;;;;;;;;8.20;80.60;;;;;;5193746;22;19907;-90
2023/12/29 10:54:00;;;;;;;;;;;8.20;80.40;;;;;;5170548;22;19907;-87
2023/12/29 10:56:26;;;;;;;;;;;8.20;80.00;;;;;;5168911;22;19961;-86
2023/12/29 10:58:56;;;;;;;;;;;8.20;79.50;;;;;;5170664;22;19904;-87
2023/12/29 11:01:13;;;;;;;;;;;8.20;78.90;;;;;;5168788;22;19911;-90
2023/12/29 11:03:34;;;;;;;;;;;8.20;78.40;;;;;;5172235;22;19923;-87
2023/12/29 11:06:01;;;;;;;;;;;8.20;77.10;;;;;;5169448;22;20185;-87
2023/12/29 11:08:34;;;;;;;;;;;8.20;77.00;;;;;;5171112;22;19908;-88
2023/12/29 11:10:58;;;;;;;;;;;8.10;76.90;;;;;;5187931;22;19977;-86
2023/12/29 11:13:20;;;;;;;;;;;8.10;77.10;;;;;;5158506;22;20006;-87
2023/12/29 11:15:44;;;;;;;;;;;8.20;77.30;;;;;;5163007;23;19946;-87
2023/12/29 11:18:05;;;;;;;;;;;8.20;77.30;;;;;;5165063;23;19903;-86
2023/12/29 11:20:29;;;;;;;;;;;8.20;77.50;;;;;;5136345;23;19908;-88
2023/12/29 11:22:50;;;;;;;;;;;8.20;77.50;;;;;;5161330;23;20310;-88
2023/12/29 11:24:53;;;;;;;;;;;8.20;77.60;;;;;;5160069;23;19908;-86
2023/12/29 11:26:54;;;;;;;;;;;8.20;77.60;;;;;;5136099;23;19963;-87
2023/12/29 11:28:55;;;;;;;;;;;8.20;77.80;;;;;;5137953;23;20610;-87
2023/12/29 11:30:55;;;;;;;;;;;8.30;77.90;;;;;;5139615;23;19969;-87
2023/12/29 11:33:08;;;;;;;;;;;8.40;78.10;;;;;;5137056;23;19907;-87
2023/12/29 11:35:48;;;;;;;;;;;8.20;78.00;;;;;;5164101;23;19997;-89
2023/12/29 11:38:12;;;;;;;;;;;8.30;77.90;;;;;;5141794;23;19931;-88
2023/12/29 11:40:36;;;;;;;;;;;8.40;77.50;;;;;;5164017;23;19907;-87
2023/12/29 11:42:59;;;;;;;;;;;8.40;77.60;;;;;;5162978;23;19970;-87
2023/12/29 11:45:24;;;;;;;;;;;8.40;77.10;;;;;;5165528;23;20259;-87
2023/12/29 11:48:02;;;;;;;;;;;8.40;77.10;;;;;;5163881;23;19995;-85
2023/12/29 11:50:32;;;;;;;;;;;8.40;77.10;;;;;;5142985;23;19966;-86
2023/12/29 11:52:53;;;;;;;;;;;8.40;76.90;;;;;;5162287;23;19970;-87
2023/12/29 11:55:19;;;;;;;;;;;8.40;76.70;;;;;;5143532;23;19934;-88
2023/12/29 11:57:41;;;;;;;;;;;8.40;76.60;;;;;;5162258;23;19911;-88
2023/12/29 12:00:05;;;;;;;;;;;8.40;76.20;;;;;;5165045;23;20081;-86
2023/12/29 12:02:29;;;;;;;;;;;8.40;76.30;;;;;;5165438;23;19904;-85
2023/12/29 12:04:50;;;;;;;;;;;8.40;76.00;;;;;;5140362;23;19907;-86
2023/12/29 12:07:55;;;;;;;;;;;8.50;76.00;;;;;;5163343;23;19907;-86
2023/12/29 12:10:32;;;;;;;;;;;8.40;75.70;;;;;;5140970;23;20021;-87
2023/12/29 12:12:57;;;;;;;;;;;8.40;75.50;;;;;;5143163;23;19962;-86
2023/12/29 12:15:33;;;;;;;;;;;8.40;75.20;;;;;;5141773;23;19971;-87
2023/12/29 12:17:35;;;;;;;;;;;8.40;75.20;;;;;;5117195;23;19919;-86
2023/12/29 12:19:36;;;;;;;;;;;8.50;74.80;;;;;;5140271;23;19908;-87
2023/12/29 12:21:37;;;;;;;;;;;8.40;74.40;;;;;;5167928;23;19903;-85
2023/12/29 12:23:40;;;;;;;;;;;8.40;74.50;;;;;;5142152;23;19908;-88
2023/12/29 12:25:41;;;;;;;;;;;8.50;74.40;;;;;;5141051;23;20539;-86
2023/12/29 12:27:45;;;;;;;;;;;8.40;74.00;;;;;;5140235;23;20014;-88
2023/12/29 12:29:47;;;;;;;;;;;8.40;73.80;;;;;;5140406;23;19908;-87
2023/12/29 12:31:54;;;;;;;;;;;8.40;73.70;;;;;;5143280;23;19904;-88
2023/12/29 12:34:10;;;;;;;;;;;8.40;73.50;;;;;;5140590;23;20586;-86
2023/12/29 12:36:14;;;;;;;;;;;8.40;73.60;;;;;;5142642;23;19978;-88
2023/12/29 12:38:34;;;;;;;;;;;8.40;73.10;;;;;;5144853;23;19932;-86
2023/12/29 12:41:12;;;;;;;;;;;8.40;73.50;;;;;;5142843;23;20178;-84
2023/12/29 12:43:41;;;;;;;;;;;8.40;73.30;;;;;;5149270;22;19920;-86
2023/12/29 12:46:02;;;;;;;;;;;8.30;73.50;;;;;;5167845;22;19994;-85
2023/12/29 12:48:28;;;;;;;;;;;8.40;73.30;;;;;;5170430;22;19987;-85
2023/12/29 12:50:51;;;;;;;;;;;8.40;73.40;;;;;;5166542;22;19911;-85
2023/12/29 12:53:20;;;;;;;;;;;8.40;73.10;;;;;;5163527;23;19911;-85
2023/12/29 12:55:41;;;;;;;;;;;8.30;73.10;;;;;;5162802;23;20069;-86
2023/12/29 12:58:02;;;;;;;;;;;8.40;73.20;;;;;;5165636;23;19990;-86
2023/12/29 13:00:26;;;;;;;;;;;8.40;73.10;;;;;;5163789;23;19907;-87
2023/12/29 13:02:47;;;;;;;;;;;8.40;72.50;;;;;;5163973;23;19907;-88
2023/12/29 13:04:47;;;;;;;;;;;8.40;72.70;;;;;;5115604;23;20440;-86
2023/12/29 13:06:48;;;;;;;;;;;8.40;72.50;;;;;;5164512;23;19931;-87
2023/12/29 13:08:54;;;;;;;;;;;8.40;72.60;;;;;;5140907;23;19938;-86
2023/12/29 13:11:19;;;;;;;;;;;8.40;72.70;;;;;;5165966;23;19911;-86
2023/12/29 13:14:02;;;;;;;;;;;8.40;72.70;;;;;;5138512;23;19908;-86
2023/12/29 13:16:35;;;;;;;;;;;8.40;72.10;;;;;;5062222;23;19909;-86
2023/12/29 13:22:08;;;;;;;;;;;8.40;72.40;;;;;;5129560;23;19908;-86
2023/12/29 13:24:33;;;;;;;;;;;8.50;71.90;;;;;;5125571;23;19932;-85
2023/12/29 13:27:08;;;;;;;;;;;8.40;71.70;;;;;;5114272;23;19904;-86
2023/12/29 13:29:39;;;;;;;;;;;8.40;71.80;;;;;;5137398;23;19910;-85
2023/12/29 13:32:28;;;;;;;;;;;8.40;71.60;;;;;;5146583;23;19959;-86
2023/12/29 13:34:55;;;;;;;;;;;8.40;71.80;;;;;;5142783;23;19930;-88
2023/12/29 13:37:18;;;;;;;;;;;8.40;71.80;;;;;;5117639;23;19915;-86
2023/12/29 13:39:52;;;;;;;;;;;8.30;71.40;;;;;;5145727;23;19928;-85
2023/12/29 13:42:06;;;;;;;;;;;8.40;71.50;;;;;;5140520;23;19916;-84
2023/12/29 13:44:28;;;;;;;;;;;8.40;71.50;;;;;;5167850;23;19962;-85
2023/12/29 13:46:50;;;;;;;;;;;8.40;71.50;;;;;;5166696;23;19982;-84
2023/12/29 13:49:15;;;;;;;;;;;8.20;71.30;;;;;;5164335;23;19998;-84
2023/12/29 13:51:35;;;;;;;;;;;8.30;71.50;;;;;;5169064;23;19911;-86